createdAt,value
2022-12-03T00:02:28.120Z,101615.72
2022-12-03T00:05:13.606Z,101607.28
2022-12-03T00:07:58.717Z,101608.06
2022-12-03T00:10:44.071Z,101594.19
2022-12-03T00:13:28.986Z,101597.22
2022-12-03T00:16:14.504Z,101588.38
2022-12-03T00:18:59.681Z,101590.72
2022-12-03T00:21:44.711Z,101590.25
2022-12-03T00:24:29.543Z,101585.03
2022-12-03T00:27:15.009Z,101584.94
2022-12-03T00:30:00.346Z,101585.50
2022-12-03T00:32:45.321Z,101580.53
2022-12-03T00:35:31.045Z,101585.50
2022-12-03T00:38:15.814Z,101590.34
2022-12-03T00:41:04.024Z,101584.63
2022-12-03T00:43:49.247Z,101574.88
2022-12-03T00:46:34.675Z,101581.97
2022-12-03T00:49:20.068Z,101577.00
2022-12-03T00:52:04.896Z,101586.84
2022-12-03T00:54:50.720Z,101581.19
2022-12-03T00:57:35.917Z,101581.88
2022-12-03T01:00:21.278Z,101580.19
2022-12-03T01:03:07.377Z,101579.09
2022-12-03T01:05:52.381Z,101576.97
2022-12-03T01:08:37.909Z,101575.44
2022-12-03T01:11:23.158Z,101576.88
2022-12-03T01:14:12.912Z,101578.31
2022-12-03T01:16:58.318Z,101578.97
2022-12-03T01:19:48.067Z,101574.44
2022-12-03T01:22:33.404Z,101576.19
2022-12-03T01:25:18.413Z,101576.97
2022-12-03T01:28:03.545Z,101572.75
2022-12-03T01:30:49.048Z,101578.66
2022-12-03T01:33:34.553Z,101578.84
2022-12-03T01:36:20.144Z,101581.06
2022-12-03T01:39:05.207Z,101580.66
2022-12-03T01:41:52.546Z,101570.47
2022-12-03T01:44:40.517Z,101575.22
2022-12-03T01:47:32.266Z,101572.22
2022-12-03T01:50:30.139Z,101579.75
2022-12-03T01:53:16.840Z,101581.22
2022-12-03T01:56:02.010Z,101589.97
2022-12-03T01:58:47.507Z,101590.28
2022-12-03T02:01:32.451Z,101591.75
2022-12-03T02:04:22.333Z,101585.84
2022-12-03T02:07:23.044Z,101590.94
2022-12-03T02:10:08.526Z,101593.28
2022-12-03T02:13:05.145Z,101586.66
2022-12-03T02:15:50.337Z,101588.19
2022-12-03T02:18:35.770Z,101581.13
2022-12-03T02:21:36.344Z,101578.22
2022-12-03T02:24:42.563Z,101576.03
2022-12-03T02:27:28.245Z,101578.66
2022-12-03T02:30:16.245Z,101573.72
2022-12-03T02:33:01.479Z,101573.06
2022-12-03T02:35:47.149Z,101572.81
2022-12-03T02:38:35.502Z,101574.59
2022-12-03T02:41:21.323Z,101580.69
2022-12-03T02:44:08.241Z,101575.34
2022-12-03T02:46:53.378Z,101573.13
2022-12-03T02:49:38.881Z,101569.72
2022-12-03T02:52:24.433Z,101567.38
2022-12-03T02:55:11.064Z,101563.38
2022-12-03T02:57:56.938Z,101568.03
2022-12-03T03:00:43.705Z,101565.38
2022-12-03T03:03:30.895Z,101555.75
2022-12-03T03:06:18.512Z,101557.50
2022-12-03T03:09:03.780Z,101548.56
2022-12-03T03:11:49.019Z,101552.69
2022-12-03T03:14:34.546Z,101546.91
2022-12-03T03:17:19.921Z,101553.88
2022-12-03T03:20:06.721Z,101552.00
2022-12-03T03:22:52.011Z,101555.69
2022-12-03T03:25:38.369Z,101546.25
2022-12-03T03:28:24.440Z,101544.69
2022-12-03T03:31:11.640Z,101546.00
2022-12-03T03:33:57.350Z,101538.94
2022-12-03T03:36:42.662Z,101530.56
2022-12-03T03:39:27.891Z,101532.75
2022-12-03T03:42:13.746Z,101526.03
2022-12-03T03:44:59.283Z,101528.44
2022-12-03T03:47:44.971Z,101521.81
2022-12-03T03:50:31.477Z,101519.16
2022-12-03T03:53:18.547Z,101520.91
2022-12-03T03:56:04.129Z,101511.66
2022-12-03T03:58:49.063Z,101508.53
2022-12-03T04:01:34.815Z,101510.31
2022-12-03T04:04:23.201Z,101510.84
2022-12-03T04:07:08.569Z,101507.66
2022-12-03T04:09:53.862Z,101506.09
2022-12-03T04:12:39.186Z,101510.31
2022-12-03T04:15:26.016Z,101506.66
2022-12-03T04:18:11.259Z,101514.28
2022-12-03T04:20:56.174Z,101507.66
2022-12-03T04:23:41.476Z,101506.78
2022-12-03T04:26:27.023Z,101514.72
2022-12-03T04:29:13.043Z,101509.09
2022-12-03T04:31:58.428Z,101507.31
2022-12-03T04:34:43.208Z,101501.78
2022-12-03T04:37:28.335Z,101489.38
2022-12-03T04:40:13.599Z,101503.47
2022-12-03T04:42:59.170Z,101506.09
2022-12-03T04:45:44.414Z,101521.59
2022-12-03T04:48:29.886Z,101511.53
2022-12-03T04:51:15.333Z,101516.72
2022-12-03T04:54:00.481Z,101524.03
2022-12-03T04:56:46.142Z,101527.91
2022-12-03T04:59:31.755Z,101524.13
2022-12-03T05:02:16.837Z,101517.72
2022-12-03T05:05:02.142Z,101526.91
2022-12-03T05:07:47.483Z,101527.09
2022-12-03T05:10:32.840Z,101532.66
2022-12-03T05:13:17.774Z,101524.03
2022-12-03T05:16:02.754Z,101521.94
2022-12-03T05:18:48.144Z,101522.91
2022-12-03T05:21:33.250Z,101534.53
2022-12-03T05:24:18.555Z,101531.53
2022-12-03T05:27:04.032Z,101533.78
2022-12-03T05:29:49.264Z,101535.00
2022-12-03T05:32:34.636Z,101526.91
2022-12-03T05:35:19.618Z,101525.69
2022-12-03T05:38:04.723Z,101521.50
2022-12-03T05:40:49.983Z,101520.50
2022-12-03T05:43:35.061Z,101514.97
2022-12-03T05:46:20.414Z,101516.94
2022-12-03T05:49:05.889Z,101517.06
2022-12-03T05:51:56.722Z,101512.72
2022-12-03T05:54:43.602Z,101529.56
2022-12-03T05:57:29.171Z,101533.31
2022-12-03T06:00:42.693Z,101527.78
2022-12-03T06:03:28.199Z,101530.44
2022-12-03T06:06:13.424Z,101542.94
2022-12-03T06:08:58.802Z,101546.81
2022-12-03T06:11:43.698Z,101538.06
2022-12-03T06:14:28.979Z,101531.69
2022-12-03T06:17:13.935Z,101533.22
2022-12-03T06:19:59.518Z,101529.78
2022-12-03T06:22:44.649Z,101530.53
2022-12-03T06:25:29.806Z,101530.66
2022-12-03T06:28:14.661Z,101517.59
2022-12-03T06:30:59.617Z,101527.78
2022-12-03T06:33:44.824Z,101521.03
2022-12-03T06:36:30.331Z,101516.63
2022-12-03T06:39:18.722Z,101512.41
2022-12-03T06:42:03.982Z,101521.38
2022-12-03T06:44:49.230Z,101524.13
2022-12-03T06:47:34.050Z,101523.13
2022-12-03T06:50:19.236Z,101518.16
2022-12-03T06:53:04.993Z,101515.06
2022-12-03T06:55:50.114Z,101507.34
2022-12-03T06:58:35.201Z,101503.34
2022-12-03T07:01:20.918Z,101509.66
2022-12-03T07:04:06.148Z,101496.28
2022-12-03T07:06:51.585Z,101495.84
2022-12-03T07:09:36.820Z,101494.41
2022-12-03T07:12:22.196Z,101489.09
2022-12-03T07:15:07.477Z,101485.75
2022-12-03T07:17:52.241Z,101479.44
2022-12-03T07:20:37.328Z,101474.34
2022-12-03T07:23:22.551Z,101470.84
2022-12-03T07:26:07.422Z,101473.16
2022-12-03T07:28:52.228Z,101469.16
2022-12-03T07:31:37.329Z,101472.94
2022-12-03T07:34:23.198Z,101478.03
2022-12-03T07:37:08.280Z,101482.78
2022-12-03T07:39:53.567Z,101477.03
2022-12-03T07:42:38.561Z,101481.22
2022-12-03T07:45:23.825Z,101481.22
2022-12-03T07:48:08.673Z,101482.19
2022-12-03T07:50:53.503Z,101480.13
2022-12-03T07:53:38.469Z,101470.50
2022-12-03T07:56:23.504Z,101472.72
2022-12-03T07:59:08.182Z,101471.28
2022-12-03T08:01:53.215Z,101476.47
2022-12-03T08:04:38.096Z,101472.03
2022-12-03T08:07:23.126Z,101475.13
2022-12-03T08:10:08.150Z,101473.56
2022-12-03T08:12:53.594Z,101473.38
2022-12-03T08:15:39.633Z,101474.81
2022-12-03T08:18:24.987Z,101464.63
2022-12-03T08:21:15.990Z,101473.34
2022-12-03T08:24:29.035Z,101471.34
2022-12-03T08:27:19.544Z,101481.78
2022-12-03T08:30:05.482Z,101487.09
2022-12-03T08:32:51.034Z,101495.59
2022-12-03T08:35:36.086Z,101488.41
2022-12-03T08:38:23.644Z,101490.81
2022-12-03T08:41:15.810Z,101486.84
2022-12-03T08:44:00.721Z,101495.38
2022-12-03T08:46:50.250Z,101500.69
2022-12-03T08:49:39.167Z,101493.06
2022-12-03T08:52:31.308Z,101501.66
2022-12-03T08:55:37.140Z,101507.97
2022-12-03T08:58:24.862Z,101504.69
2022-12-03T09:01:13.157Z,101501.13
2022-12-03T09:04:14.669Z,101506.00
2022-12-03T09:07:00.057Z,101512.09
2022-12-03T09:09:44.859Z,101520.91
2022-12-03T09:12:31.965Z,101519.47
2022-12-03T09:15:17.290Z,101509.00
2022-12-03T09:18:02.522Z,101505.66
2022-12-03T09:20:47.575Z,101505.22
2022-12-03T09:23:32.749Z,101512.53
2022-12-03T09:26:17.622Z,101511.09
2022-12-03T09:29:06.430Z,101509.53
2022-12-03T09:31:55.962Z,101515.75
2022-12-03T09:34:41.224Z,101516.28
2022-12-03T09:37:26.255Z,101516.94
2022-12-03T09:40:12.061Z,101521.25
2022-12-03T09:42:57.060Z,101515.50
2022-12-03T09:45:47.989Z,101515.59
2022-12-03T09:48:33.119Z,101503.31
2022-12-03T09:51:19.920Z,101501.22
2022-12-03T09:54:07.079Z,101496.78
2022-12-03T09:56:53.715Z,101494.78
2022-12-03T09:59:39.287Z,101487.88
2022-12-03T10:02:28.722Z,101467.31
2022-12-03T10:05:15.012Z,101469.56
2022-12-03T10:08:06.828Z,101460.84
2022-12-03T10:10:54.687Z,101455.50
2022-12-03T10:13:40.344Z,101447.78
2022-12-03T10:16:26.103Z,101431.09
2022-12-03T10:19:32.684Z,101431.53
2022-12-03T10:22:17.806Z,101423.66
2022-12-03T10:25:06.257Z,101422.53
2022-12-03T10:27:56.342Z,101420.50
2022-12-03T10:30:53.666Z,101413.56
2022-12-03T10:33:41.665Z,101417.75
2022-12-03T10:36:26.747Z,101408.22
2022-12-03T10:39:13.455Z,101408.41
2022-12-03T10:42:14.734Z,101395.78
2022-12-03T10:45:15.053Z,101389.13
2022-12-03T10:48:04.936Z,101381.50
2022-12-03T10:50:54.466Z,101376.81
2022-12-03T10:53:40.873Z,101375.06
2022-12-03T10:56:27.082Z,101373.44
2022-12-03T10:59:19.771Z,101367.09
2022-12-03T11:02:17.127Z,101366.44
2022-12-03T11:05:02.100Z,101352.09
2022-12-03T11:07:47.385Z,101360.91
2022-12-03T11:10:32.722Z,101353.88
2022-12-03T11:13:28.525Z,101357.97
2022-12-03T11:16:34.328Z,101358.38
2022-12-03T11:19:39.593Z,101341.53
2022-12-03T11:22:28.144Z,101351.59
2022-12-03T11:25:25.654Z,101350.53
2022-12-03T11:28:14.140Z,101357.16
2022-12-03T11:31:02.180Z,101350.22
2022-12-03T11:33:47.754Z,101345.31
2022-12-03T11:37:00.434Z,101334.41
2022-12-03T11:40:04.271Z,101330.25
2022-12-03T11:42:49.208Z,101318.72
2022-12-03T11:45:37.956Z,101322.13
2022-12-03T11:48:23.459Z,101312.28
2022-12-03T11:51:14.730Z,101309.84
2022-12-03T11:54:00.444Z,101304.63
2022-12-03T11:56:47.557Z,101300.28
2022-12-03T11:59:32.711Z,101303.09
2022-12-03T12:02:20.047Z,101298.41
2022-12-03T12:05:31.484Z,101298.16
2022-12-03T12:08:19.052Z,101293.44
2022-12-03T12:11:17.471Z,101283.06
2022-12-03T12:14:06.753Z,101282.75
2022-12-03T12:16:55.374Z,101284.03
2022-12-03T12:19:42.606Z,101282.41
2022-12-03T12:22:27.544Z,101286.03
2022-12-03T12:25:35.738Z,101275.09
2022-12-03T12:28:21.461Z,101269.41
2022-12-03T12:31:11.408Z,101260.81
2022-12-03T12:33:56.938Z,101259.88
2022-12-03T12:36:41.882Z,101259.25
2022-12-03T12:39:27.002Z,101248.44
2022-12-03T12:42:31.843Z,101244.72
2022-12-03T12:45:20.388Z,101251.34
2022-12-03T12:48:31.836Z,101255.06
2022-12-03T12:51:17.848Z,101257.63
2022-12-03T12:54:02.750Z,101265.53
2022-12-03T12:56:49.549Z,101255.56
2022-12-03T12:59:34.571Z,101250.19
2022-12-03T13:02:44.506Z,101258.03
2022-12-03T13:05:40.486Z,101265.84
2022-12-03T13:08:31.946Z,101259.09
2022-12-03T13:11:38.954Z,101255.56
2022-12-03T13:14:26.142Z,101248.25
2022-12-03T13:17:15.361Z,101244.91
2022-12-03T13:20:07.522Z,101243.56
2022-12-03T13:22:53.177Z,101240.81
2022-12-03T13:26:00.239Z,101234.53
2022-12-03T13:28:43.343Z,101241.53
2022-12-03T13:31:33.335Z,101232.78
2022-12-03T13:34:24.533Z,101232.84
2022-12-03T13:37:20.523Z,101240.22
2022-12-03T13:40:19.926Z,101232.56
2022-12-03T13:43:12.027Z,101221.25
2022-12-03T13:45:58.049Z,101222.13
2022-12-03T13:48:43.268Z,101228.28
2022-12-03T13:51:32.269Z,101214.44
2022-12-03T13:54:27.611Z,101210.44
2022-12-03T13:57:12.699Z,101216.03
2022-12-03T13:59:57.688Z,101210.44
2022-12-03T14:02:43.230Z,101212.16
2022-12-03T14:05:29.114Z,101222.06
2022-12-03T14:08:14.083Z,101216.16
2022-12-03T14:11:00.852Z,101218.63
2022-12-03T14:13:46.404Z,101210.78
2022-12-03T14:16:31.393Z,101201.84
2022-12-03T14:19:16.675Z,101181.94
2022-12-03T14:22:01.571Z,101194.88
2022-12-03T14:24:46.344Z,101204.56
2022-12-03T14:27:31.232Z,101198.91
2022-12-03T14:30:16.648Z,101188.91
2022-12-03T14:33:02.165Z,101206.91
2022-12-03T14:35:47.329Z,101202.50
2022-12-03T14:38:32.398Z,101210.44
2022-12-03T14:41:17.720Z,101212.22
2022-12-03T14:44:02.406Z,101205.13
2022-12-03T14:46:49.107Z,101216.38
2022-12-03T14:49:36.661Z,101221.56
2022-12-03T14:52:21.591Z,101222.53
2022-12-03T14:55:06.799Z,101214.91
2022-12-03T14:57:51.969Z,101221.00
2022-12-03T15:00:36.916Z,101224.88
2022-12-03T15:03:21.834Z,101218.25
2022-12-03T15:06:07.403Z,101227.03
2022-12-03T15:08:52.771Z,101246.72
2022-12-03T15:11:41.456Z,101236.63
2022-12-03T15:14:30.907Z,101231.44
2022-12-03T15:17:16.051Z,101237.28
2022-12-03T15:20:01.365Z,101232.78
2022-12-03T15:22:46.247Z,101238.88
2022-12-03T15:25:31.376Z,101233.13
2022-12-03T15:28:16.977Z,101234.03
2022-12-03T15:31:02.032Z,101231.78
2022-12-03T15:33:47.327Z,101234.38
2022-12-03T15:36:32.225Z,101233.31
2022-12-03T15:39:17.073Z,101228.97
2022-12-03T15:42:02.562Z,101230.13
2022-12-03T15:44:47.313Z,101234.88
2022-12-03T15:47:32.258Z,101240.34
2022-12-03T15:50:18.044Z,101240.88
2022-12-03T15:53:02.951Z,101239.56
2022-12-03T15:55:47.846Z,101239.06
2022-12-03T15:58:32.879Z,101241.91
2022-12-03T16:01:18.130Z,101234.59
2022-12-03T16:04:04.059Z,101229.38
2022-12-03T16:06:49.150Z,101226.03
2022-12-03T16:09:34.612Z,101229.78
2022-12-03T16:12:19.570Z,101217.59
2022-12-03T16:15:04.933Z,101223.28
2022-12-03T16:17:50.804Z,101223.88
2022-12-03T16:20:35.833Z,101232.47
2022-12-03T16:23:21.039Z,101232.31
2022-12-03T16:26:06.524Z,101232.41
2022-12-03T16:28:52.328Z,101218.00
2022-12-03T16:31:37.378Z,101219.03
2022-12-03T16:34:22.765Z,101227.28
2022-12-03T16:37:08.026Z,101224.81
2022-12-03T16:39:53.400Z,101222.88
2022-12-03T16:42:41.926Z,101234.34
2022-12-03T16:45:27.193Z,101227.63
2022-12-03T16:48:12.715Z,101238.34
2022-12-03T16:50:58.102Z,101224.41
2022-12-03T16:53:42.869Z,101225.47
2022-12-03T16:56:27.752Z,101224.59
2022-12-03T16:59:12.603Z,101236.72
2022-12-03T17:01:57.586Z,101229.41
2022-12-03T17:04:42.444Z,101225.56
2022-12-03T17:07:27.506Z,101225.22
2022-12-03T17:10:12.867Z,101232.47
2022-12-03T17:13:09.193Z,101231.72
2022-12-03T17:15:55.093Z,101232.88
2022-12-03T17:18:40.052Z,101235.19
2022-12-03T17:21:25.461Z,101225.34
2022-12-03T17:24:10.499Z,101212.63
2022-12-03T17:26:55.748Z,101211.69
2022-12-03T17:29:41.218Z,101225.47
2022-12-03T17:32:26.442Z,101222.69
2022-12-03T17:35:12.101Z,101221.72
2022-12-03T17:37:57.009Z,101221.34
2022-12-03T17:40:41.879Z,101212.84
2022-12-03T17:43:26.968Z,101216.84
2022-12-03T17:46:12.188Z,101224.69
2022-12-03T17:48:57.506Z,101220.72
2022-12-03T17:51:42.435Z,101218.25
2022-12-03T17:54:43.149Z,101214.31
2022-12-03T17:57:32.718Z,101207.88
2022-12-03T18:00:18.025Z,101206.66
2022-12-03T18:03:03.360Z,101201.47
2022-12-03T18:05:48.513Z,101205.22
2022-12-03T18:08:33.403Z,101202.34
2022-12-03T18:11:18.507Z,101198.91
2022-12-03T18:14:03.804Z,101201.88
2022-12-03T18:17:04.197Z,101205.13
2022-12-03T18:19:49.240Z,101194.75
2022-12-03T18:22:34.065Z,101194.34
2022-12-03T18:25:19.358Z,101191.50
2022-12-03T18:28:04.805Z,101188.94
2022-12-03T18:30:52.760Z,101189.19
2022-12-03T18:33:38.537Z,101180.56
2022-12-03T18:36:26.228Z,101173.31
2022-12-03T18:39:23.603Z,101174.88
2022-12-03T18:42:17.540Z,101171.25
2022-12-03T18:45:02.896Z,101173.81
2022-12-03T18:47:48.402Z,101176.88
2022-12-03T18:50:33.677Z,101182.56
2022-12-03T18:53:19.038Z,101182.09
2022-12-03T18:56:04.458Z,101174.28
2022-12-03T18:58:49.664Z,101173.88
2022-12-03T19:01:35.332Z,101179.72
2022-12-03T19:04:20.608Z,101178.47
2022-12-03T19:07:06.036Z,101177.59
2022-12-03T19:09:50.949Z,101184.44
2022-12-03T19:12:36.637Z,101180.16
2022-12-03T19:15:21.728Z,101182.09
2022-12-03T19:18:06.597Z,101178.00
2022-12-03T19:20:51.505Z,101183.16
2022-12-03T19:23:37.353Z,101184.03
2022-12-03T19:26:22.199Z,101188.94
2022-12-03T19:29:07.050Z,101189.41
2022-12-03T19:31:52.270Z,101184.13
2022-12-03T19:34:37.363Z,101183.84
2022-12-03T19:37:22.657Z,101181.28
2022-12-03T19:40:08.198Z,101192.34
2022-12-03T19:42:53.462Z,101192.03
2022-12-03T19:45:38.385Z,101198.63
2022-12-03T19:48:23.742Z,101209.00
2022-12-03T19:51:32.974Z,101201.59
2022-12-03T19:54:16.011Z,101200.19
2022-12-03T19:57:01.171Z,101208.91
2022-12-03T19:59:46.401Z,101211.16
2022-12-03T20:02:31.819Z,101212.28
2022-12-03T20:05:17.289Z,101206.81
2022-12-03T20:08:02.864Z,101210.56
2022-12-03T20:10:48.321Z,101206.75
2022-12-03T20:13:36.413Z,101200.13
2022-12-03T20:16:22.823Z,101202.88
2022-12-03T20:19:10.861Z,101198.44
2022-12-03T20:22:02.059Z,101197.50
2022-12-03T20:24:47.829Z,101200.22
2022-12-03T20:27:32.772Z,101204.56
2022-12-03T20:30:17.728Z,101202.59
2022-12-03T20:33:03.083Z,101202.56
2022-12-03T20:35:52.431Z,101199.44
2022-12-03T20:38:37.852Z,101204.66
2022-12-03T20:41:23.250Z,101184.06
2022-12-03T20:44:08.404Z,101194.03
2022-12-03T20:46:53.472Z,101184.44
2022-12-03T20:49:38.703Z,101195.44
2022-12-03T20:52:23.940Z,101196.09
2022-12-03T20:55:09.648Z,101190.00
2022-12-03T20:57:55.040Z,101203.50
2022-12-03T21:00:39.930Z,101197.03
2022-12-03T21:03:24.835Z,101199.09
2022-12-03T21:06:10.435Z,101191.09
2022-12-03T21:08:57.642Z,101194.81
2022-12-03T21:11:42.822Z,101199.84
2022-12-03T21:14:27.758Z,101190.78
2022-12-03T21:17:13.158Z,101192.06
2022-12-03T21:19:58.568Z,101184.78
2022-12-03T21:22:43.567Z,101193.53
2022-12-03T21:25:28.618Z,101191.19
2022-12-03T21:28:13.625Z,101181.75
2022-12-03T21:31:03.341Z,101196.34
2022-12-03T21:33:48.844Z,101193.53
2022-12-03T21:36:33.879Z,101188.00
2022-12-03T21:39:19.014Z,101190.22
2022-12-03T21:42:22.346Z,101185.53
2022-12-03T21:45:09.806Z,101190.81
2022-12-03T21:47:54.812Z,101186.13
2022-12-03T21:50:40.327Z,101193.47
2022-12-03T21:53:25.740Z,101197.91
2022-12-03T21:56:13.623Z,101194.56
2022-12-03T21:58:58.745Z,101196.53
2022-12-03T22:01:47.144Z,101187.72
2022-12-03T22:04:32.802Z,101188.13
2022-12-03T22:07:18.106Z,101181.94
2022-12-03T22:10:04.960Z,101186.75
2022-12-03T22:12:49.821Z,101176.91
2022-12-03T22:15:34.704Z,101177.22
2022-12-03T22:18:20.088Z,101179.69
2022-12-03T22:21:07.599Z,101176.38
2022-12-03T22:23:52.819Z,101165.41
2022-12-03T22:26:37.738Z,101168.75
2022-12-03T22:29:22.788Z,101155.03
2022-12-03T22:32:07.746Z,101162.66
2022-12-03T22:34:53.088Z,101163.66
2022-12-03T22:37:37.920Z,101159.06
2022-12-03T22:40:24.028Z,101164.34
2022-12-03T22:43:09.349Z,101157.78
2022-12-03T22:45:55.565Z,101168.16
2022-12-03T22:48:45.638Z,101161.13
2022-12-03T22:51:30.631Z,101152.50
2022-12-03T22:54:18.259Z,101149.63
2022-12-03T22:57:07.621Z,101150.81
2022-12-03T22:59:52.946Z,101156.69
2022-12-03T23:02:38.661Z,101153.56
2022-12-03T23:05:23.673Z,101161.13
2022-12-03T23:08:11.936Z,101146.81
2022-12-03T23:11:00.365Z,101150.78
2022-12-03T23:13:48.377Z,101159.53
2022-12-03T23:16:33.765Z,101148.34
2022-12-03T23:19:18.780Z,101157.06
2022-12-03T23:22:03.854Z,101154.44
2022-12-03T23:24:48.743Z,101154.03
2022-12-03T23:27:33.613Z,101143.38
2022-12-03T23:30:18.888Z,101145.84
2022-12-03T23:33:05.656Z,101131.84
2022-12-03T23:35:50.951Z,101138.59
2022-12-03T23:38:36.162Z,101138.78
2022-12-03T23:41:22.956Z,101128.91
2022-12-03T23:44:08.126Z,101128.31
2022-12-03T23:46:53.021Z,101127.72
2022-12-03T23:49:38.362Z,101132.94
2022-12-03T23:52:23.753Z,101135.56
2022-12-03T23:55:09.680Z,101136.53
2022-12-03T23:57:54.613Z,101141.91
